LYBE/BEG METAR and TAF weather

Enter ICAO airport designator
Station Type Date Time Source
LYBE METAR 2017/02/19 23:00 UTC NOAA

LYBE 192300Z 30002KT 3000 BR BKN008 OVC012 00/00 Q1025 NOSIG


Station Type Date Time Source
LYBE Decoded METAR 2017/02/19 23:00 UTC NOAA

Beograd / Surcin, Serbia and Montenegro (LYBE) 44-49N 020-17E 99M
Feb 19, 2017 - 06:00 PM EST / 2017.02.19 2300 UTC
Wind: from the WNW (300 degrees) at 2 MPH (2 KT):0
Visibility: 1 mile(s):0
Sky conditions: overcast
Weather: mist
Temperature: 32 F (0 C)
Dew Point: 32 F (0 C)
Relative Humidity: 100%
Pressure (altimeter): 30.27 in. Hg (1025 hPa)
ob: LYBE 192300Z 30002KT 3000 BR BKN008 OVC012 00/00 Q1025 NOSIG
cycle: 23

Station Type Date Time Source
LYBE TAF 2017/02/19 18:24 UTC NOAA

TAF TAF LYBE 191700Z 1918/2018 32004KT 4000 BR OVC010 TX04/2012Z TNM02/2005Z
BECMG 2000/2002 2000 OVC005
TEMPO 2004/2008 0500 FZFG OVC003
BECMG 2008/2010 4000 SCT010
BECMG 2010/2012 6000 NSW
TEMPO 2015/2018 2000 BR


Example: see airport list